Time;durP1;ratioP1;P1;durP2;ratioP2;P2;SDS_P1;SDS_P2;PMS_P1;PMS_P2;Temp;Humidity;BMP_temperature;BMP_pressure;BME280_temperature;BME280_humidity;BME280_pressure;Samples;Min_cycle;Max_cycle;Signal;HPM_P1;HPM_P2
2023/02/27 00:00:55;;;;;;;14.73;9.77;;;77.50;2227.20;;;;;;5072261;28;20527;-73
2023/02/27 00:03:21;;;;;;;15.52;8.77;;;77.50;2227.20;;;;;;5072257;28;20035;-73
2023/02/27 00:05:47;;;;;;;;;;;77.50;2227.20;;;;;;5073381;28;20025;-72
2023/02/27 00:08:13;;;;;;;13.27;8.10;;;77.50;2227.20;;;;;;5073883;28;20005;-73
2023/02/27 00:10:39;;;;;;;;;;;77.50;2227.20;;;;;;5074146;28;20069;-73
2023/02/27 00:13:05;;;;;;;15.40;8.63;;;77.60;2227.20;;;;;;5073920;28;19912;-72
2023/02/27 00:15:31;;;;;;;23.63;11.88;;;102.50;2227.20;;;;;;5073925;28;20033;-73
2023/02/27 00:17:58;;;;;;;18.15;10.68;;;77.50;2227.20;;;;;;5074218;28;20469;-73
2023/02/27 00:20:24;;;;;;;16.90;9.48;;;77.50;2227.20;;;;;;5073520;28;20563;-73
2023/02/27 00:22:50;;;;;;;11.93;7.85;;;77.40;2227.20;;;;;;5072938;28;20029;-73
2023/02/27 00:25:16;;;;;;;;;;;77.30;2227.20;;;;;;5070635;28;20039;-73
2023/02/27 00:27:42;;;;;;;13.32;7.70;;;77.30;2227.20;;;;;;5072110;28;19995;-72
2023/02/27 00:30:09;;;;;;;;;;;77.20;2227.20;;;;;;5074006;28;20532;-73
2023/02/27 00:32:35;;;;;;;10.27;5.78;;;77.20;2227.20;;;;;;5073259;28;19916;-73
2023/02/27 00:35:03;;;;;;;11.60;6.65;;;77.30;2227.20;;;;;;5073305;28;20032;-72
2023/02/27 00:37:29;;;;;;;14.48;7.53;;;77.30;2227.20;;;;;;5055689;28;20048;-72
2023/02/27 00:39:54;;;;;;;;;;;77.50;2227.20;;;;;;5074123;28;20062;-73
2023/02/27 00:42:21;;;;;;;13.95;7.65;;;77.40;2227.20;;;;;;5073102;28;20386;-72
2023/02/27 00:44:46;;;;;;;14.13;8.32;;;77.30;2227.20;;;;;;5072862;28;20104;-73
2023/02/27 00:47:12;;;;;;;;;;;77.30;2227.20;;;;;;5074584;28;20056;-73
2023/02/27 00:49:37;;;;;;;13.75;7.60;;;77.20;2227.20;;;;;;5069638;28;19904;-72
2023/02/27 00:52:03;;;;;;;;;;;77.20;2227.20;;;;;;5054434;28;20025;-73
2023/02/27 00:54:29;;;;;;;13.07;7.53;;;77.20;2227.20;;;;;;5054952;28;19956;-73
2023/02/27 00:56:54;;;;;;;;;;;77.10;2227.20;;;;;;5074075;28;20047;-73
2023/02/27 00:59:20;;;;;;;17.17;9.40;;;77.10;2227.20;;;;;;5073521;28;19928;-73
2023/02/27 01:01:46;;;;;;;;;;;77.10;2227.20;;;;;;5074131;28;20040;-72
2023/02/27 01:04:11;;;;;;;17.95;8.93;;;77.10;2227.20;;;;;;5073469;28;19969;-73
2023/02/27 01:06:37;;;;;;;;;;;77.00;2227.20;;;;;;5074071;28;20028;-73
2023/02/27 01:09:03;;;;;;;21.35;10.55;;;77.00;2227.20;;;;;;5073273;28;19904;-73
2023/02/27 01:11:29;;;;;;;;;;;76.90;2227.20;;;;;;5073744;28;20476;-73
2023/02/27 01:13:55;;;;;;;21.20;10.77;;;76.90;2227.20;;;;;;5073372;28;19912;-73
2023/02/27 01:16:20;;;;;;;;;;;77.10;2227.20;;;;;;5073730;28;20027;-72
2023/02/27 01:18:47;;;;;;;19.95;10.63;;;77.00;2227.20;;;;;;5073002;28;19915;-73
2023/02/27 01:21:12;;;;;;;16.13;9.80;;;76.90;2227.20;;;;;;5073290;28;20484;-73
2023/02/27 01:23:38;;;;;;;;;;;76.80;2227.20;;;;;;5073554;28;20067;-73
2023/02/27 01:26:04;;;;;;;18.70;9.85;;;76.80;1868.80;;;;;;5071475;28;19957;-73
2023/02/27 01:28:29;;;;;;;;;;;52.10;2227.20;;;;;;5073555;28;20035;-73
2023/02/27 01:30:55;;;;;;;21.08;9.05;;;76.80;2022.40;;;;;;5073148;28;19904;-72
2023/02/27 01:33:20;;;;;;;;;;;76.80;2227.20;;;;;;5073240;28;20129;-73
2023/02/27 01:35:46;;;;;;;17.30;10.32;;;76.90;2227.20;;;;;;5073228;28;20003;-75
2023/02/27 01:38:12;;;;;;;;;;;76.90;2227.20;;;;;;5073447;28;20028;-73
2023/02/27 01:40:39;;;;;;;15.85;8.30;;;76.90;2227.20;;;;;;5073147;28;19912;-73
2023/02/27 01:43:05;;;;;;;18.52;10.82;;;76.90;2227.20;;;;;;5072785;28;20021;-73
2023/02/27 01:45:49;;;;;;;;;;;76.80;2227.20;;;;;;5073600;28;20032;-73
2023/02/27 01:48:24;;;;;;;19.55;9.88;;;76.90;2227.20;;;;;;5072923;28;19905;-73
2023/02/27 01:50:58;;;;;;;21.67;10.07;;;76.90;2227.20;;;;;;5073001;28;20032;-73
2023/02/27 01:53:27;;;;;;;21.17;10.50;;;76.90;2227.20;;;;;;5071084;28;20110;-73
2023/02/27 01:56:03;;;;;;;19.15;9.20;;;76.80;2227.20;;;;;;5088622;28;20017;-73
2023/02/27 01:58:28;;;;;;;16.83;9.83;;;76.90;2227.20;;;;;;5072786;28;20524;-73
2023/02/27 02:00:54;;;;;;;;;;;76.90;2227.20;;;;;;5073177;28;20085;-73
2023/02/27 02:03:31;;;;;;;18.77;10.10;;;77.00;2227.20;;;;;;5071458;28;20364;-73
2023/02/27 02:05:59;;;;;;;21.33;12.60;;;76.90;2227.20;;;;;;5072809;28;20029;-73
2023/02/27 02:08:27;;;;;;;22.67;12.25;;;76.90;2227.20;;;;;;5072883;28;20107;-73
2023/02/27 02:10:55;;;;;;;21.38;12.48;;;76.90;2227.20;;;;;;5072764;28;20020;-73
2023/02/27 02:13:21;;;;;;;19.38;10.98;;;76.90;2227.20;;;;;;5072520;28;20087;-73
2023/02/27 02:15:56;;;;;;;16.67;10.60;;;76.90;2227.20;;;;;;5072794;28;20102;-73
2023/02/27 02:18:43;;;;;;;13.68;8.45;;;76.90;2227.20;;;;;;5072799;28;20380;-73
2023/02/27 02:21:46;;;;;;;9.52;6.10;;;76.90;2227.20;;;;;;5067477;28;20021;-73
2023/02/27 02:24:26;;;;;;;15.30;9.05;;;76.90;2227.20;;;;;;5069498;28;20538;-73
2023/02/27 02:27:10;;;;;;;15.95;8.30;;;76.80;2227.20;;;;;;5072569;28;20036;-73
2023/02/27 02:29:41;;;;;;;10.40;7.13;;;52.10;2227.20;;;;;;5060646;28;20020;-73
2023/02/27 02:32:23;;;;;;;16.13;9.07;;;52.10;2227.20;;;;;;5074281;28;20059;-73
2023/02/27 02:35:22;;;;;;;19.77;9.30;;;52.10;2227.20;;;;;;5076183;28;20549;-73
2023/02/27 02:37:54;;;;;;;12.02;7.93;;;52.10;2227.20;;;;;;5064149;28;20032;-73
2023/02/27 02:40:27;;;;;;;13.38;8.45;;;76.80;2227.20;;;;;;5076291;28;20028;-73
2023/02/27 02:43:16;;;;;;;13.80;8.85;;;76.80;2227.20;;;;;;5076007;28;20028;-73
2023/02/27 02:46:07;;;;;;;15.05;7.88;;;76.90;2227.20;;;;;;5063150;28;20020;-74
2023/02/27 02:48:53;;;;;;;14.80;9.63;;;76.90;2227.20;;;;;;5076107;28;20083;-73
2023/02/27 02:51:29;;;;;;;12.70;7.57;;;76.90;2227.20;;;;;;5076079;28;20024;-73
2023/02/27 02:54:15;;;;;;;13.85;8.18;;;76.90;2227.20;;;;;;5063759;28;20476;-73
2023/02/27 02:57:05;;;;;;;18.30;10.00;;;76.90;2227.20;;;;;;5075871;28;20487;-73
2023/02/27 02:59:41;;;;;;;16.23;9.48;;;77.00;2227.20;;;;;;5075732;28;20081;-73
2023/02/27 03:02:14;;;;;;;11.63;7.47;;;76.90;2227.20;;;;;;5067106;28;20031;-73
2023/02/27 03:04:52;;;;;;;11.55;7.35;;;76.90;2227.20;;;;;;5072228;28;20394;-72
2023/02/27 03:07:28;;;;;;;15.63;9.73;;;76.90;2227.20;;;;;;5075785;28;20021;-73
2023/02/27 03:10:10;;;;;;;13.85;7.20;;;76.90;2227.20;;;;;;5075619;28;20035;-73
2023/02/27 03:12:40;;;;;;;17.17;9.60;;;76.90;2227.20;;;;;;5075516;28;20025;-73
2023/02/27 03:15:25;;;;;;;17.48;8.98;;;76.90;2227.20;;;;;;5075736;28;20032;-73
2023/02/27 03:17:57;;;;;;;13.70;9.13;;;77.00;2227.20;;;;;;5075416;28;20021;-73
2023/02/27 03:20:36;;;;;;;17.38;8.93;;;77.00;2227.20;;;;;;5075477;28;20028;-73
2023/02/27 03:23:07;;;;;;;15.63;8.65;;;76.90;2227.20;;;;;;5075636;28;20022;-73
2023/02/27 03:25:34;;;;;;;16.33;8.85;;;77.00;2227.20;;;;;;5075252;28;20491;-73
2023/02/27 03:28:05;;;;;;;16.65;8.55;;;77.10;2227.20;;;;;;5074197;28;20021;-73
2023/02/27 03:30:44;;;;;;;18.55;9.80;;;77.10;2227.20;;;;;;5075282;28;20107;-73
2023/02/27 03:33:20;;;;;;;17.63;9.50;;;77.00;2227.20;;;;;;5074935;28;20401;-73
2023/02/27 03:36:08;;;;;;;17.05;9.02;;;77.00;2227.20;;;;;;5075104;28;20013;-73
2023/02/27 03:38:38;;;;;;;16.35;9.68;;;77.00;2227.20;;;;;;5090861;28;20020;-73
2023/02/27 03:41:31;;;;;;;15.00;8.82;;;76.90;2227.20;;;;;;5075354;28;20092;-74
2023/02/27 03:44:27;;;;;;;14.57;8.50;;;77.00;2227.20;;;;;;5074490;28;20494;-73
2023/02/27 03:46:52;;;;;;;12.70;8.10;;;77.00;2227.20;;;;;;5075008;28;20096;-73
2023/02/27 03:49:18;;;;;;;;;;;77.10;2227.20;;;;;;5065617;28;20512;-73
2023/02/27 03:51:44;;;;;;;12.93;7.55;;;76.90;2227.20;;;;;;5071474;28;19991;-73
2023/02/27 03:54:17;;;;;;;19.05;8.88;;;76.90;2227.20;;;;;;5074808;28;20464;-73
2023/02/27 03:56:56;;;;;;;13.50;8.13;;;76.90;2227.20;;;;;;5074807;28;20012;-73
2023/02/27 03:59:23;;;;;;;15.25;8.30;;;76.80;2227.20;;;;;;5074691;28;20032;-73
2023/02/27 04:01:50;;;;;;;14.68;8.70;;;77.00;2227.20;;;;;;5074601;28;20021;-73
2023/02/27 04:04:16;;;;;;;15.02;8.40;;;76.90;2227.20;;;;;;5074623;28;20032;-73
2023/02/27 04:07:22;;;;;;;14.27;8.15;;;77.10;2227.20;;;;;;5074562;28;20024;-73
2023/02/27 04:10:07;;;;;;;15.77;9.77;;;77.10;2227.20;;;;;;5074483;28;20099;-73
2023/02/27 04:12:44;;;;;;;16.92;8.60;;;77.20;2227.20;;;;;;5074295;28;20105;-73
2023/02/27 04:15:25;;;;;;;17.02;8.82;;;77.00;2227.20;;;;;;5074592;28;20044;-73
2023/02/27 04:18:09;;;;;;;15.93;8.60;;;77.00;2227.20;;;;;;5074127;28;20017;-73
2023/02/27 04:20:42;;;;;;;15.50;8.68;;;77.00;2227.20;;;;;;5074363;28;20029;-73
2023/02/27 04:23:18;;;;;;;17.08;8.52;;;77.00;2227.20;;;;;;5074438;28;20511;-73
2023/02/27 04:25:44;;;;;;;;;;;77.00;2227.20;;;;;;5074601;28;20055;-73
2023/02/27 04:28:34;;;;;;;13.00;7.10;;;76.90;2227.20;;;;;;5074136;28;19908;-74
2023/02/27 04:31:09;;;;;;;18.25;7.75;;;76.90;2227.20;;;;;;5074020;28;20508;-73
2023/02/27 04:33:55;;;;;;;13.75;8.90;;;76.90;2227.20;;;;;;5073901;28;20040;-73
2023/02/27 04:36:31;;;;;;;18.08;8.70;;;77.00;2227.20;;;;;;5073968;28;20540;-73
2023/02/27 04:39:03;;;;;;;20.00;8.32;;;77.10;2227.20;;;;;;5073807;28;20103;-73
2023/02/27 04:41:52;;;;;;;14.65;7.63;;;77.10;2227.20;;;;;;5073961;28;20039;-73
2023/02/27 04:44:20;;;;;;;17.65;8.52;;;77.00;2227.20;;;;;;5073912;28;20102;-73
2023/02/27 04:46:48;;;;;;;16.33;7.90;;;77.00;2227.20;;;;;;5073642;28;20488;-75
2023/02/27 04:49:30;;;;;;;18.52;9.45;;;76.80;2227.20;;;;;;5073736;28;20023;-73
2023/02/27 04:52:03;;;;;;;18.73;9.55;;;77.00;2227.20;;;;;;5073622;28;20427;-73
2023/02/27 04:54:50;;;;;;;14.25;7.63;;;77.10;2227.20;;;;;;5072799;28;20094;-73
2023/02/27 04:57:26;;;;;;;11.38;6.78;;;77.00;2227.20;;;;;;5062148;28;20021;-73
2023/02/27 04:59:54;;;;;;;12.88;6.72;;;76.90;2227.20;;;;;;5073517;28;20020;-73
2023/02/27 05:02:34;;;;;;;18.20;9.60;;;77.00;2227.20;;;;;;5073407;28;20469;-73
2023/02/27 05:05:04;;;;;;;16.27;9.15;;;77.00;2227.20;;;;;;5073409;28;20545;-73
2023/02/27 05:07:36;;;;;;;16.95;8.98;;;77.10;2227.20;;;;;;5073532;28;20540;-73
2023/02/27 05:10:07;;;;;;;19.67;10.40;;;77.00;2227.20;;;;;;5072256;28;20016;-73
2023/02/27 05:13:05;;;;;;;18.17;9.45;;;76.90;2227.20;;;;;;5073259;28;20017;-73
2023/02/27 05:15:41;;;;;;;24.92;12.10;;;76.90;2227.20;;;;;;5073053;28;20118;-73
2023/02/27 05:18:13;;;;;;;21.77;10.18;;;77.00;2227.20;;;;;;5073356;28;20048;-73
2023/02/27 05:20:57;;;;;;;19.35;10.13;;;77.00;2227.20;;;;;;5073247;28;20111;-73
2023/02/27 05:24:05;;;;;;;18.65;9.10;;;77.00;2227.20;;;;;;5071935;28;20029;-73
2023/02/27 05:26:45;;;;;;;16.55;9.15;;;77.00;2227.20;;;;;;4991874;28;20038;-73
2023/02/27 05:29:47;;;;;;;17.83;9.35;;;77.10;2227.20;;;;;;4991545;28;20105;-73
2023/02/27 05:32:36;;;;;;;19.20;9.60;;;77.10;2227.20;;;;;;4991467;28;20188;-72
2023/02/27 05:35:52;;;;;;;16.58;9.88;;;77.10;2227.20;;;;;;4991905;28;20242;-73
2023/02/27 05:38:37;;;;;;;18.35;9.32;;;77.10;2227.20;;;;;;4914969;29;20051;-73
2023/02/27 05:41:10;;;;;;;14.05;8.35;;;77.10;2227.20;;;;;;4914970;29;20091;-73
2023/02/27 05:43:59;;;;;;;19.35;9.38;;;77.10;2227.20;;;;;;4914447;29;20119;-73
2023/02/27 05:46:32;;;;;;;17.55;10.15;;;77.00;2227.20;;;;;;4914961;29;20032;-73
2023/02/27 05:49:06;;;;;;;17.90;10.05;;;77.10;2227.20;;;;;;4914964;29;20384;-74
2023/02/27 05:51:34;;;;;;;16.25;9.38;;;77.10;2227.20;;;;;;4912864;29;20036;-73
2023/02/27 05:54:12;;;;;;;15.70;8.90;;;77.10;2227.20;;;;;;4904054;29;20046;-73
2023/02/27 05:56:41;;;;;;;17.77;9.25;;;77.20;2227.20;;;;;;4914609;29;20056;-74
2023/02/27 05:59:42;;;;;;;19.75;9.95;;;77.20;2227.20;;;;;;4914742;29;20154;-74
2023/02/27 06:02:09;;;;;;;14.75;8.70;;;77.20;2227.20;;;;;;4866801;29;20498;-73
2023/02/27 06:04:35;;;;;;;16.20;9.80;;;77.20;2227.20;;;;;;4948146;29;20533;-74
2023/02/27 06:07:03;;;;;;;;;;;77.30;2227.20;;;;;;4956793;28;20411;-73
2023/02/27 06:09:30;;;;;;;15.25;7.63;;;77.30;2227.20;;;;;;4980349;28;20435;-73
2023/02/27 06:11:57;;;;;;;16.67;8.80;;;77.30;2227.20;;;;;;5015118;28;20053;-72
2023/02/27 06:14:22;;;;;;;14.73;8.40;;;77.30;2227.20;;;;;;5013579;28;20030;-72
2023/02/27 06:16:48;;;;;;;;;;;77.40;2227.20;;;;;;5013817;28;20776;-72
2023/02/27 06:19:13;;;;;;;19.98;9.65;;;77.50;2227.20;;;;;;5014750;28;19905;-72
2023/02/27 06:21:39;;;;;;;;;;;77.50;2227.20;;;;;;5014482;28;20030;-74
2023/02/27 06:24:05;;;;;;;23.08;11.18;;;77.50;2227.20;;;;;;5014047;28;19959;-73
2023/02/27 06:26:30;;;;;;;;;;;77.30;2227.20;;;;;;4997685;28;20535;-74
2023/02/27 06:28:56;;;;;;;22.48;11.05;;;77.40;2227.20;;;;;;5013872;28;20349;-73
2023/02/27 06:31:22;;;;;;;;;;;77.40;2227.20;;;;;;5013761;28;20136;-73
2023/02/27 06:33:48;;;;;;;24.40;11.07;;;77.50;2227.20;;;;;;5013585;28;20013;-73
2023/02/27 06:36:13;;;;;;;;;;;77.50;2227.20;;;;;;5014852;28;20518;-72
2023/02/27 06:38:39;;;;;;;16.77;9.32;;;77.50;2227.20;;;;;;5038408;28;19947;-72
2023/02/27 06:41:04;;;;;;;;;;;77.50;2227.20;;;;;;5074897;28;20051;-73
2023/02/27 06:43:33;;;;;;;21.65;9.50;;;77.50;2227.20;;;;;;5070442;28;19912;-73
2023/02/27 06:46:00;;;;;;;18.90;10.05;;;77.40;2227.20;;;;;;5075266;28;20012;-72
2023/02/27 06:48:25;;;;;;;19.90;9.70;;;77.50;2227.20;;;;;;5072100;28;20492;-72
2023/02/27 06:50:55;;;;;;;;;;;77.60;2227.20;;;;;;5075605;28;20016;-74
2023/02/27 06:53:21;;;;;;;17.77;9.35;;;77.60;2227.20;;;;;;5075141;28;20257;-74
2023/02/27 06:55:48;;;;;;;18.08;10.40;;;77.60;2227.20;;;;;;5073794;28;20051;-74
2023/02/27 06:58:14;;;;;;;16.27;9.25;;;77.60;2227.20;;;;;;5073742;28;20024;-73
2023/02/27 07:00:40;;;;;;;24.13;10.95;;;77.60;2227.20;;;;;;5075642;28;20028;-73
2023/02/27 07:03:05;;;;;;;;;;;77.70;2227.20;;;;;;5074571;28;20028;-77
2023/02/27 07:05:31;;;;;;;23.02;11.88;;;77.70;2227.20;;;;;;5073953;28;19919;-73
2023/02/27 07:07:57;;;;;;;;;;;102.50;2227.20;;;;;;5086840;28;20357;-74
2023/02/27 07:10:23;;;;;;;31.90;14.00;;;102.50;2227.20;;;;;;5075351;28;19951;-75
2023/02/27 07:12:49;;;;;;;;;;;102.60;2227.20;;;;;;5079657;28;20028;-76
2023/02/27 07:15:15;;;;;;;21.08;10.98;;;102.60;2227.20;;;;;;5070769;28;19954;-75
2023/02/27 07:17:40;;;;;;;;;;;102.60;2227.20;;;;;;5074558;28;20415;-75
2023/02/27 07:20:09;;;;;;;19.30;10.10;;;102.70;2227.20;;;;;;5075196;28;20150;-76
2023/02/27 07:22:35;;;;;;;18.83;11.43;;;102.70;2227.20;;;;;;5070683;28;20032;-75
2023/02/27 07:25:02;;;;;;;27.70;14.07;;;102.90;2227.20;;;;;;5072939;28;20040;-75
2023/02/27 07:27:27;;;;;;;28.50;15.82;;;103.10;2227.20;;;;;;5074221;28;20090;-76
2023/02/27 07:29:53;;;;;;;;;;;103.20;2227.20;;;;;;5074230;28;20024;-79
2023/02/27 07:32:19;;;;;;;31.40;15.45;;;128.00;2252.80;;;;;;5073895;28;19961;-83
2023/02/27 07:34:44;;;;;;;;;;;128.00;2252.80;;;;;;5073678;28;20127;-74
2023/02/27 07:37:10;;;;;;;28.40;14.93;;;128.20;2252.80;;;;;;5064833;28;19913;-74
2023/02/27 07:39:35;;;;;;;;;;;128.40;2252.80;;;;;;5074077;28;20028;-76
2023/02/27 07:42:01;;;;;;;33.75;18.20;;;128.40;2252.80;;;;;;5085938;28;19904;-75
2023/02/27 07:44:27;;;;;;;;;;;128.40;2252.80;;;;;;5075041;28;20029;-76
2023/02/27 07:46:53;;;;;;;35.30;16.88;;;128.50;2252.80;;;;;;5089277;28;19997;-76
2023/02/27 07:49:18;;;;;;;;;;;128.20;2252.80;;;;;;5080456;28;20035;-76
2023/02/27 07:51:44;;;;;;;31.08;14.60;;;128.00;2252.80;;;;;;5073258;28;19904;-76
2023/02/27 07:54:09;;;;;;;;;;;128.20;2252.80;;;;;;5073513;28;20029;-77
2023/02/27 07:56:35;;;;;;;72.38;27.75;;;128.10;2252.80;;;;;;5073178;28;19939;-76
2023/02/27 07:59:01;;;;;;;;;;;128.30;2252.80;;;;;;5073722;28;20024;-77
2023/02/27 08:01:27;;;;;;;26.70;14.00;;;128.40;2252.80;;;;;;5073759;28;20363;-76
2023/02/27 08:03:52;;;;;;;;;;;128.00;2252.80;;;;;;5089698;28;20039;-76
2023/02/27 08:06:18;;;;;;;23.83;12.00;;;128.10;2252.80;;;;;;5073684;28;19955;-76
2023/02/27 08:08:44;;;;;;;;;;;128.30;2252.80;;;;;;5075057;28;20036;-76
2023/02/27 08:11:10;;;;;;;31.45;13.88;;;128.40;2252.80;;;;;;5073470;28;19911;-77
2023/02/27 08:13:35;;;;;;;;;;;128.50;2252.80;;;;;;5073006;28;20491;-76
2023/02/27 08:16:01;;;;;;;17.00;9.75;;;128.60;2252.80;;;;;;5070903;28;20403;-76
2023/02/27 08:18:27;;;;;;;;;;;128.60;2252.80;;;;;;5059432;28;20383;-76
2023/02/27 08:20:55;;;;;;;17.88;9.65;;;128.70;2252.80;;;;;;5073469;28;19950;-76
2023/02/27 08:23:21;;;;;;;15.25;9.05;;;128.70;2252.80;;;;;;5072417;28;20476;-76
2023/02/27 08:25:46;;;;;;;;;;;128.60;2252.80;;;;;;5072749;28;20055;-76
2023/02/27 08:28:12;;;;;;;20.52;11.65;;;128.80;2252.80;;;;;;5072606;28;19908;-76
2023/02/27 08:30:37;;;;;;;;;;;128.80;2252.80;;;;;;5073349;28;20029;-76
2023/02/27 08:33:03;;;;;;;21.38;10.98;;;128.60;2252.80;;;;;;5072144;28;19923;-76
2023/02/27 08:35:29;;;;;;;;;;;128.30;2252.80;;;;;;5072898;28;20535;-76
2023/02/27 08:37:55;;;;;;;20.85;10.05;;;128.20;2252.80;;;;;;5072206;28;20249;-75
2023/02/27 08:40:20;;;;;;;;;;;128.40;2252.80;;;;;;5072036;28;20392;-75
2023/02/27 08:42:46;;;;;;;25.35;11.05;;;128.30;2252.80;;;;;;5072445;28;19904;-75
2023/02/27 08:45:11;;;;;;;;;;;128.10;2252.80;;;;;;5073672;28;20085;-75
2023/02/27 08:47:37;;;;;;;20.83;12.32;;;128.00;2252.80;;;;;;5073272;28;20007;-75
2023/02/27 08:50:04;;;;;;;;;;;103.20;2227.20;;;;;;5089109;28;20028;-76
2023/02/27 08:52:30;;;;;;;;;;;103.30;2227.20;;;;;;5074665;28;19908;-76
2023/02/27 08:54:56;;;;;;;18.67;9.95;;;103.30;2227.20;;;;;;5072133;28;19916;-75
2023/02/27 08:57:21;;;;;;;;;;;103.10;2227.20;;;;;;5072024;28;20025;-76
2023/02/27 08:59:47;;;;;;;22.13;10.48;;;103.10;2227.20;;;;;;5071529;28;19908;-76
2023/02/27 09:02:13;;;;;;;;;;;103.20;2227.20;;;;;;5071121;28;20032;-76
2023/02/27 09:04:38;;;;;;;24.33;9.90;;;103.20;2227.20;;;;;;5072720;28;20031;-76
2023/02/27 09:07:04;;;;;;;;;;;103.10;2227.20;;;;;;5072924;28;20025;-76
2023/02/27 09:09:30;;;;;;;15.75;9.05;;;103.10;2227.20;;;;;;5072585;28;19911;-76
2023/02/27 09:11:56;;;;;;;17.67;8.95;;;103.20;2227.20;;;;;;5071005;28;20093;-75
2023/02/27 09:14:22;;;;;;;;;;;103.20;2227.20;;;;;;5071727;28;20040;-75
2023/02/27 09:16:48;;;;;;;13.30;8.20;;;103.20;2227.20;;;;;;5073020;28;19904;-75
2023/02/27 09:19:14;;;;;;;;;;;103.20;2227.20;;;;;;5072818;28;20031;-76
2023/02/27 09:21:40;;;;;;;13.93;8.13;;;103.00;2227.20;;;;;;5072474;28;20391;-76
2023/02/27 09:24:07;;;;;;;19.60;9.82;;;128.10;2252.80;;;;;;5079156;28;20020;-75
2023/02/27 09:26:33;;;;;;;18.23;9.73;;;103.20;2227.20;;;;;;5072212;28;20519;-76
2023/02/27 09:28:59;;;;;;;;;;;128.00;2252.80;;;;;;5073125;28;20028;-75
2023/02/27 09:31:25;;;;;;;16.45;9.05;;;128.10;2252.80;;;;;;5070949;28;19917;-74
2023/02/27 09:33:50;;;;;;;;;;;128.10;2252.80;;;;;;5072183;28;20047;-76
2023/02/27 09:36:16;;;;;;;17.92;9.80;;;128.30;2252.80;;;;;;5080736;28;19951;-76
2023/02/27 09:38:41;;;;;;;;;;;128.30;2252.80;;;;;;5068882;28;20443;-75
2023/02/27 09:41:29;;;;;;;14.55;8.32;;;128.30;2252.80;;;;;;5082184;28;20349;-76
2023/02/27 09:43:54;;;;;;;18.08;9.13;;;128.10;2252.80;;;;;;5065122;28;20048;-76
2023/02/27 09:46:21;;;;;;;;;;;128.40;2252.80;;;;;;5072679;28;20056;-75
2023/02/27 09:49:00;;;;;;;13.85;7.88;;;128.50;2252.80;;;;;;5072265;28;19952;-75
2023/02/27 09:51:27;;;;;;;14.38;7.45;;;128.40;2252.80;;;;;;5072115;28;20264;-77
2023/02/27 09:54:00;;;;;;;14.18;6.95;;;128.40;2252.80;;;;;;5071969;28;20105;-75
2023/02/27 09:56:31;;;;;;;17.55;9.18;;;128.50;2252.80;;;;;;5072020;28;20078;-75
2023/02/27 09:59:27;;;;;;;16.45;8.93;;;128.50;2252.80;;;;;;5071227;28;20017;-76
2023/02/27 10:01:59;;;;;;;17.40;9.30;;;128.70;2252.80;;;;;;5071804;28;20472;-77
2023/02/27 10:04:53;;;;;;;16.77;7.57;;;128.60;2252.80;;;;;;5072325;28;20021;-76
2023/02/27 10:07:26;;;;;;;16.23;9.93;;;128.70;2252.80;;;;;;5070925;28;20064;-77
2023/02/27 10:10:13;;;;;;;16.25;8.88;;;128.60;2252.80;;;;;;5072798;28;20039;-77
2023/02/27 10:12:58;;;;;;;15.65;8.20;;;128.60;2252.80;;;;;;5065467;28;20020;-77
2023/02/27 10:15:33;;;;;;;11.45;6.30;;;128.50;2252.80;;;;;;5080182;28;20112;-79
2023/02/27 10:18:04;;;;;;;11.68;7.28;;;128.50;2252.80;;;;;;5080010;28;20028;-78
2023/02/27 10:20:33;;;;;;;18.33;10.75;;;128.60;2252.80;;;;;;5071347;28;20484;-80
2023/02/27 10:23:21;;;;;;;13.52;7.97;;;128.70;2252.80;;;;;;5071332;28;20107;-79
2023/02/27 10:25:50;;;;;;;13.18;7.38;;;128.70;2252.80;;;;;;5072060;28;20029;-78
2023/02/27 10:28:20;;;;;;;13.98;8.38;;;128.70;2252.80;;;;;;5071042;28;20024;-76
2023/02/27 10:30:55;;;;;;;17.00;8.77;;;128.70;2252.80;;;;;;5075067;28;20033;-76
2023/02/27 10:33:37;;;;;;;16.08;9.57;;;128.80;2252.80;;;;;;5071707;28;20052;-76
2023/02/27 10:36:10;;;;;;;16.30;9.85;;;128.80;2252.80;;;;;;5077437;28;20389;-76
2023/02/27 10:38:43;;;;;;;12.43;6.85;;;153.70;2252.80;;;;;;5064185;28;20070;-76
2023/02/27 10:41:12;;;;;;;12.48;7.35;;;153.70;2252.80;;;;;;5071321;28;20023;-75
2023/02/27 10:43:39;;;;;;;18.60;9.02;;;153.80;2252.80;;;;;;5081995;28;20032;-76
2023/02/27 10:46:41;;;;;;;22.60;8.25;;;153.80;2252.80;;;;;;5071317;28;20032;-75
2023/02/27 10:49:15;;;;;;;14.20;7.30;;;153.80;2252.80;;;;;;5027328;28;20030;-76
2023/02/27 10:51:43;;;;;;;14.15;7.38;;;154.10;2252.80;;;;;;5026954;28;20513;-76
2023/02/27 10:54:23;;;;;;;13.27;7.30;;;154.20;2252.80;;;;;;5023966;28;20037;-75
2023/02/27 10:56:52;;;;;;;11.57;6.78;;;154.20;2252.80;;;;;;5008464;28;20041;-74
2023/02/27 10:59:37;;;;;;;13.07;8.48;;;154.30;2252.80;;;;;;5028183;28;20091;-76
2023/02/27 11:02:20;;;;;;;17.20;8.43;;;154.40;2252.80;;;;;;5020050;28;20493;-75
2023/02/27 11:04:58;;;;;;;15.02;8.65;;;154.50;2252.80;;;;;;5022367;28;20034;-74
2023/02/27 11:07:37;;;;;;;13.77;9.00;;;179.20;2252.80;;;;;;5033916;28;20029;-74
2023/02/27 11:10:11;;;;;;;14.65;7.70;;;179.30;2252.80;;;;;;5032919;28;20029;-75
2023/02/27 11:12:39;;;;;;;15.35;7.80;;;179.40;2252.80;;;;;;5036533;28;20032;-77
2023/02/27 11:15:13;;;;;;;12.70;8.20;;;179.30;2252.80;;;;;;5031973;28;20036;-77
2023/02/27 11:17:39;;;;;;;13.73;8.07;;;179.30;2252.80;;;;;;5034514;28;20556;-78
2023/02/27 11:20:24;;;;;;;;;;;179.40;2252.80;;;;;;5041832;28;20055;-75
2023/02/27 11:23:03;;;;;;;13.18;7.90;;;179.40;2252.80;;;;;;5049295;28;19911;-76
2023/02/27 11:25:29;;;;;;;13.18;7.20;;;179.20;2252.80;;;;;;5087382;28;20021;-77
2023/02/27 11:28:10;;;;;;;;;;;154.50;2252.80;;;;;;5074026;28;20472;-75
2023/02/27 11:30:37;;;;;;;10.15;6.53;;;179.20;2252.80;;;;;;5078094;28;19999;-76
2023/02/27 11:33:03;;;;;;;16.85;7.85;;;179.20;2252.80;;;;;;5062982;28;20044;-77
2023/02/27 11:35:33;;;;;;;;;;;179.30;2252.80;;;;;;5076951;28;20044;-78
2023/02/27 11:38:18;;;;;;;11.80;7.18;;;179.40;2252.80;;;;;;5074431;28;19908;-76
2023/02/27 11:40:57;;;;;;;10.23;6.63;;;179.40;2252.80;;;;;;5074754;28;20411;-76
2023/02/27 11:43:31;;;;;;;14.73;7.63;;;179.50;2252.80;;;;;;5072006;28;20029;-75
2023/02/27 11:46:01;;;;;;;13.68;7.88;;;179.50;2252.80;;;;;;5072943;28;20044;-78
2023/02/27 11:48:36;;;;;;;12.60;7.47;;;179.50;2252.80;;;;;;5072980;28;20029;-76
2023/02/27 11:51:08;;;;;;;12.45;7.55;;;179.40;2252.80;;;;;;5074075;28;20056;-76
2023/02/27 11:54:00;;;;;;;13.50;7.45;;;179.30;2252.80;;;;;;5072069;28;20045;-76
2023/02/27 11:56:42;;;;;;;13.63;7.75;;;179.50;2252.80;;;;;;5073881;28;20059;-77
2023/02/27 11:59:11;;;;;;;13.60;7.55;;;179.30;2252.80;;;;;;5073346;28;20059;-76
2023/02/27 12:01:49;;;;;;;18.05;8.38;;;179.40;2252.80;;;;;;5073767;28;20108;-78
2023/02/27 12:04:39;;;;;;;17.00;9.18;;;179.40;2252.80;;;;;;5072256;28;20068;-76
2023/02/27 12:07:19;;;;;;;20.17;9.70;;;179.40;2252.80;;;;;;5072796;28;20032;-77
2023/02/27 12:09:57;;;;;;;11.85;7.82;;;179.40;2252.80;;;;;;5070920;28;20021;-77
2023/02/27 12:12:44;;;;;;;12.65;7.75;;;179.50;2252.80;;;;;;5072799;28;20055;-77
2023/02/27 12:15:16;;;;;;;13.00;6.57;;;179.50;2252.80;;;;;;5088274;28;20115;-77
2023/02/27 12:17:44;;;;;;;14.80;8.25;;;179.40;2252.80;;;;;;5071569;28;20486;-78
2023/02/27 12:20:38;;;;;;;19.52;10.00;;;179.50;2252.80;;;;;;5071319;28;20115;-78
2023/02/27 12:23:18;;;;;;;13.48;8.32;;;179.50;2252.80;;;;;;5071370;28;20491;-78
2023/02/27 12:25:51;;;;;;;14.40;8.77;;;179.20;2252.80;;;;;;5072759;28;20032;-77
2023/02/27 12:28:40;;;;;;;11.50;7.18;;;179.20;2252.80;;;;;;5073753;28;20029;-77
2023/02/27 12:31:29;;;;;;;17.52;9.27;;;179.30;2252.80;;;;;;5071938;28;20052;-78
2023/02/27 12:34:05;;;;;;;16.83;9.57;;;179.20;2252.80;;;;;;5072099;28;20041;-78
2023/02/27 12:36:31;;;;;;;13.05;8.00;;;179.30;2252.80;;;;;;5070864;28;20013;-77
2023/02/27 12:38:57;;;;;;;;;;;179.20;2252.80;;;;;;5074510;28;20385;-77
2023/02/27 12:41:42;;;;;;;20.52;11.10;;;179.30;2252.80;;;;;;5082157;28;19995;-77
2023/02/27 12:44:26;;;;;;;15.75;9.10;;;179.40;2252.80;;;;;;5088472;28;20045;-77
2023/02/27 12:47:14;;;;;;;11.82;7.32;;;179.50;2252.80;;;;;;5071823;28;20039;-77
2023/02/27 12:50:17;;;;;;;11.43;8.18;;;179.40;2252.80;;;;;;5079268;28;20384;-77
2023/02/27 12:52:51;;;;;;;13.77;8.40;;;179.30;2252.80;;;;;;5071480;28;20051;-77
2023/02/27 12:55:26;;;;;;;17.65;10.15;;;179.40;2252.80;;;;;;5084559;28;20397;-77